Sunny Isles — 9HYE9 — position and weather

sailwx.info

Track history (hours):
 
Tides and Currents Weather Stations Pressure Air Temp Water Temp Dewpoint Dewpoint Depression Visibility Wind Speed Wind Dir Waves Ship Positions

Sunny Isles

Last reported at 2018-Jul-16 18:38 UTC. Time now 2018-Jul-18 07:02 UTC.
Position N 09°13' W 079°55'.

Length 183 m; draft 11.3 m.

Type: Ship (hazmat cat D). MMSI: 249694000.

Date/timePositionNaut miles runAvg speedWind from/ knotsBaromVisibWave heightAir tempDewpointWater temp
2018-Jul-16 18:38N 09°13' W 079°55'1 3.8
2018-Jul-16 18:23N 09°14' W 079°56'0 0.2
2018-Jul-16 17:33N 09°14' W 079°56'0 0.0
2018-Jul-16 15:33N 09°14' W 079°56'0 0.1
2018-Jul-16 15:12N 09°14' W 079°56'0 0.1
2018-Jul-16 14:36N 09°14' W 079°56'0 0.0
2018-Jul-16 14:27N 09°14' W 079°56'0 0.0
2018-Jul-16 13:03N 09°14' W 079°56'0 0.1
2018-Jul-16 11:56N 09°14' W 079°56'1 2.8
2018-Jul-16 11:30N 09°15' W 079°55'2 3.1
2018-Jul-16 11:01N 09°16' W 079°55'0 0.3
2018-Jul-16 10:30N 09°16' W 079°55'0 0.4
2018-Jul-16 09:57N 09°17' W 079°55'1 1.3
2018-Jul-16 09:28N 09°17' W 079°55'0 1.0
2018-Jul-16 09:00N 09°18' W 079°55'3 5.2
2018-Jul-16 08:30N 09°20' W 079°55'3 6.0
2018-Jul-16 08:01N 09°23' W 079°55'4 6.8
2018-Jul-16 07:29N 09°27' W 079°55'1 0.4
2018-Jul-16 06:07N 09°27' W 079°56'0 0.0
2018-Jul-16 05:52N 09°27' W 079°56'0 0.0
2018-Jul-16 04:04N 09°27' W 079°56'0 0.0
2018-Jul-16 03:52N 09°27' W 079°56'0 0.0
2018-Jul-16 03:28N 09°27' W 079°56'0 0.1
2018-Jul-16 02:40N 09°27' W 079°56'0 0.0
2018-Jul-16 02:22N 09°27' W 079°56'0 0.1
2018-Jul-16 01:52N 09°27' W 079°56'0 0.0
2018-Jul-16 01:28N 09°27' W 079°56'0 0.0
2018-Jul-16 00:58N 09°27' W 079°56'0 0.0
2018-Jul-16 00:28N 09°27' W 079°56'0 0.0
2018-Jul-15 23:40N 09°27' W 079°56'0 0.0
2018-Jul-15 23:28N 09°27' W 079°56'0 0.0
2018-Jul-15 22:58N 09°27' W 079°56'0 0.0
2018-Jul-15 22:25N 09°27' W 079°56'0 0.3
2018-Jul-15 21:57N 09°27' W 079°56'1 3.0
2018-Jul-15 21:30N 09°28' W 079°55'  
2018-Jul-10 07:54N 28°51' W 093°13'512.1
2018-Jul-10 07:28N 28°56' W 093°13'612.1
2018-Jul-10 06:57N 29°03' W 093°13'511.9
2018-Jul-10 06:30N 29°08' W 093°13'18 9.8
2018-Jul-10 04:39N 29°26' W 093°13'410.4
2018-Jul-10 04:18N 29°30' W 093°13'3 9.8
2018-Jul-10 04:00N 29°33' W 093°15'510.4
2018-Jul-10 03:28N 29°37' W 093°19'4 9.0
2018-Jul-10 03:00N 29°41' W 093°20'4 8.4
2018-Jul-10 02:30N 29°45' W 093°21'4 8.5
2018-Jul-10 02:01N 29°49' W 093°21'4 8.2
2018-Jul-10 01:31N 29°53' W 093°21'4 7.6
2018-Jul-10 01:01N 29°57' W 093°20'3 6.4
2018-Jul-10 00:31N 30°00' W 093°20'3 6.1
2018-Jul-10 00:01N 30°03' W 093°20'3 5.8
2018-Jul-09 23:30N 30°06' W 093°20'3 5.2
2018-Jul-09 23:01N 30°09' W 093°20'2 3.7
2018-Jul-09 22:31N 30°11' W 093°19'0 0.4
2018-Jul-09 22:00N 30°11' W 093°19'0 0.3
2018-Jul-09 21:29N 30°11' W 093°19'0 0.0
2018-Jul-09 20:56N 30°11' W 093°19'0 0.0
2018-Jul-09 20:29N 30°11' W 093°19'0 0.0
2018-Jul-09 19:59N 30°11' W 093°19'0 0.0
2018-Jul-09 19:29N 30°11' W 093°19'0 0.0
2018-Jul-09 18:59N 30°11' W 093°19'0 0.0
2018-Jul-09 18:29N 30°11' W 093°19'0 0.0
2018-Jul-09 17:59N 30°11' W 093°19'0 0.0
2018-Jul-09 17:29N 30°11' W 093°19'0 0.0
2018-Jul-09 16:59N 30°11' W 093°19'0 0.0
2018-Jul-09 16:29N 30°11' W 093°19'0 0.0
2018-Jul-09 15:59N 30°11' W 093°19'0 0.0
2018-Jul-09 15:29N 30°11' W 093°19'0 0.0
2018-Jul-09 14:59N 30°11' W 093°19'0 0.0
2018-Jul-09 14:29N 30°11' W 093°19'0 0.0
2018-Jul-09 13:59N 30°11' W 093°19'0 0.0
2018-Jul-09 13:29N 30°11' W 093°19'0 0.0
2018-Jul-09 12:59N 30°11' W 093°19'0 0.0
2018-Jul-09 12:29N 30°11' W 093°19'0 0.0
2018-Jul-09 11:59N 30°11' W 093°19'0 0.0
2018-Jul-09 11:29N 30°11' W 093°19'0 0.0
2018-Jul-09 10:59N 30°11' W 093°19'0 0.0
2018-Jul-09 10:29N 30°11' W 093°19'0 0.0
2018-Jul-09 09:59N 30°11' W 093°19'0 0.0
2018-Jul-09 09:29N 30°11' W 093°19'0 0.0
2018-Jul-09 08:59N 30°11' W 093°19'0 0.0
2018-Jul-09 08:29N 30°11' W 093°19'0 0.0
2018-Jul-09 07:59N 30°11' W 093°19'0 0.0
2018-Jul-09 07:29N 30°11' W 093°19'0 0.0
2018-Jul-09 06:59N 30°11' W 093°19'0 0.0
2018-Jul-09 06:26N 30°11' W 093°19'0 0.0
2018-Jul-09 05:59N 30°11' W 093°19'0 0.0
2018-Jul-09 05:29N 30°11' W 093°19'0 0.0
2018-Jul-09 04:59N 30°11' W 093°19'0 0.0
2018-Jul-09 04:29N 30°11' W 093°19'0 0.0
2018-Jul-09 03:59N 30°11' W 093°19'0 0.0
2018-Jul-09 03:29N 30°11' W 093°19'0 0.0
2018-Jul-09 02:59N 30°11' W 093°19'0 0.0
2018-Jul-09 02:29N 30°11' W 093°19'0 0.0
2018-Jul-09 01:59N 30°11' W 093°19'0 0.0
2018-Jul-09 01:29N 30°11' W 093°19'0 0.0
2018-Jul-09 00:59N 30°11' W 093°19'0 0.0
2018-Jul-09 00:29N 30°11' W 093°19'0 0.0
2018-Jul-08 23:56N 30°11' W 093°19'0 0.0
2018-Jul-08 23:29N 30°11' W 093°19'0 0.0
2018-Jul-08 22:59N 30°11' W 093°19'0 0.0
2018-Jul-08 22:29N 30°11' W 093°19'0 0.0
2018-Jul-08 21:53N 30°11' W 093°19'0 0.0
2018-Jul-08 21:29N 30°11' W 093°19'0 0.0
2018-Jul-08 20:59N 30°11' W 093°19'0 0.0
2018-Jul-08 20:29N 30°11' W 093°19'0 0.0
2018-Jul-08 19:59N 30°11' W 093°19'0 0.0
2018-Jul-08 19:29N 30°11' W 093°19'0 0.0
2018-Jul-08 18:59N 30°11' W 093°19'0 0.0
2018-Jul-08 18:29N 30°11' W 093°19'0 0.0
2018-Jul-08 17:59N 30°11' W 093°19'0 0.0
2018-Jul-08 17:23N 30°11' W 093°19'0 0.0
2018-Jul-08 16:59N 30°11' W 093°19'0 0.0
2018-Jul-08 16:29N 30°11' W 093°19'0 0.0
2018-Jul-08 15:59N 30°11' W 093°19'0 0.0
2018-Jul-08 15:29N 30°11' W 093°19'0 0.0
2018-Jul-08 14:59N 30°11' W 093°19'0 0.0
2018-Jul-08 14:29N 30°11' W 093°19'0 0.0
2018-Jul-08 13:59N 30°11' W 093°19'0 0.0
2018-Jul-08 13:29N 30°11' W 093°19'0 0.0
2018-Jul-08 12:59N 30°11' W 093°19'0 0.0
2018-Jul-08 12:29N 30°11' W 093°19'0 0.0
2018-Jul-08 11:56N 30°11' W 093°19'0 0.0
2018-Jul-08 11:29N 30°11' W 093°19'0 0.0
2018-Jul-08 10:59N 30°11' W 093°19'0 0.0
2018-Jul-08 10:29N 30°11' W 093°19'0 0.0
2018-Jul-08 09:59N 30°11' W 093°19'0 0.0
2018-Jul-08 09:29N 30°11' W 093°19'0 0.0
2018-Jul-08 08:59N 30°11' W 093°19'0 0.0
2018-Jul-08 08:29N 30°11' W 093°19'0 0.0
2018-Jul-08 07:59N 30°11' W 093°19'0 0.0
2018-Jul-08 07:29N 30°11' W 093°19'0 0.0
2018-Jul-08 06:59N 30°11' W 093°19'0 0.0
2018-Jul-08 06:29N 30°11' W 093°19'0 0.0
2018-Jul-08 05:59N 30°11' W 093°19'0 0.0
2018-Jul-08 05:29N 30°11' W 093°19'0 0.0
2018-Jul-08 04:59N 30°11' W 093°19'0 0.0
2018-Jul-08 04:29N 30°11' W 093°19'0 0.0
2018-Jul-08 03:59N 30°11' W 093°19'0 0.0
2018-Jul-08 03:29N 30°11' W 093°19'0 0.0
2018-Jul-08 02:59N 30°11' W 093°19'0 0.0
2018-Jul-08 02:29N 30°11' W 093°19'0 0.0
2018-Jul-08 01:59N 30°11' W 093°19'0 0.0
2018-Jul-08 01:29N 30°11' W 093°19'0 0.0
2018-Jul-08 00:59N 30°11' W 093°19'0 0.0
2018-Jul-08 00:29N 30°11' W 093°19'0 0.0
2018-Jul-07 23:59N 30°11' W 093°19'0 0.0
2018-Jul-07 23:29N 30°11' W 093°19'0 0.0
2018-Jul-07 22:59N 30°11' W 093°19'0 0.0
2018-Jul-07 22:29N 30°11' W 093°19'0 0.0
2018-Jul-07 21:59N 30°11' W 093°19'0 0.0
2018-Jul-07 21:29N 30°11' W 093°19'0 0.0
2018-Jul-07 20:59N 30°11' W 093°19'0 0.0
2018-Jul-07 20:29N 30°11' W 093°19'0 0.0
2018-Jul-07 19:59N 30°11' W 093°19'0 0.0
2018-Jul-07 19:29N 30°11' W 093°19'0 0.0
2018-Jul-07 18:56N 30°11' W 093°19'0 0.0
2018-Jul-07 18:29N 30°11' W 093°19'0 0.0
2018-Jul-07 17:59N 30°11' W 093°19'0 0.0
2018-Jul-07 17:29N 30°11' W 093°19'0 0.0
2018-Jul-07 16:59N 30°11' W 093°19'0 0.0
2018-Jul-07 16:29N 30°11' W 093°19'0 0.0
2018-Jul-07 15:59N 30°11' W 093°19'0 0.0
2018-Jul-07 15:29N 30°11' W 093°19'0 0.0
2018-Jul-07 14:59N 30°11' W 093°19'0 0.0
2018-Jul-07 14:29N 30°11' W 093°19'0 0.0
2018-Jul-07 13:59N 30°11' W 093°19'0 0.0
2018-Jul-07 13:29N 30°11' W 093°19'0 0.0
2018-Jul-07 12:59N 30°11' W 093°19'0 0.0
2018-Jul-07 12:29N 30°11' W 093°19'0 0.0
2018-Jul-07 11:59N 30°11' W 093°19'0 0.0
2018-Jul-07 11:29N 30°11' W 093°19'0 0.0
2018-Jul-07 10:59N 30°11' W 093°19'0 0.0
2018-Jul-07 10:29N 30°11' W 093°19'0 0.0
2018-Jul-07 09:59N 30°11' W 093°19'0 0.0
2018-Jul-07 09:29N 30°11' W 093°19'0 0.0
2018-Jul-07 08:59N 30°11' W 093°19'0 0.0
2018-Jul-07 08:29N 30°11' W 093°19'0 0.0
2018-Jul-07 07:59N 30°11' W 093°19'0 0.0
2018-Jul-07 07:29N 30°11' W 093°19'0 0.0
2018-Jul-07 06:59N 30°11' W 093°19'0 0.0
2018-Jul-07 06:27N 30°11' W 093°19'0 0.9
2018-Jul-07 06:00N 30°10' W 093°19'3 5.4
2018-Jul-07 05:30N 30°08' W 093°20'4 7.0
2018-Jul-07 05:00N 30°04' W 093°20'4 8.1
2018-Jul-07 04:30N 30°00' W 093°20'4 8.1
2018-Jul-07 04:00N 29°56' W 093°20'5 9.2
2018-Jul-07 03:30N 29°51' W 093°21'5 9.4
2018-Jul-07 03:00N 29°47' W 093°21'8 9.2
2018-Jul-07 02:09N 29°39' W 093°19'1 8.6
2018-Jul-07 02:00N 29°38' W 093°19'  
Track history (hours):
 
Tides and Currents Weather Stations Pressure Air Temp Water Temp Dewpoint Dewpoint Depression Visibility Wind Speed Wind Dir Waves Ship Positions

Sunny Isles

Last reported at 2018-Jul-16 18:38 UTC. Time now 2018-Jul-18 07:02 UTC.
Position N 09°13' W 079°55'.

Length 183 m; draft 11.3 m.

Type: Ship (hazmat cat D). MMSI: 249694000.

Date/timePositionNaut miles runAvg speedWind from/ knotsBaromVisibWave heightAir tempDewpointWater temp
2018-Jul-16 18:38N 09°13' W 079°55'1 3.8
2018-Jul-16 18:23N 09°14' W 079°56'0 0.2
2018-Jul-16 17:33N 09°14' W 079°56'0 0.0
2018-Jul-16 15:33N 09°14' W 079°56'0 0.1
2018-Jul-16 15:12N 09°14' W 079°56'0 0.1
2018-Jul-16 14:36N 09°14' W 079°56'0 0.0
2018-Jul-16 14:27N 09°14' W 079°56'0 0.0
2018-Jul-16 13:03N 09°14' W 079°56'0 0.1
2018-Jul-16 11:56N 09°14' W 079°56'1 2.8
2018-Jul-16 11:30N 09°15' W 079°55'2 3.1
2018-Jul-16 11:01N 09°16' W 079°55'0 0.3
2018-Jul-16 10:30N 09°16' W 079°55'0 0.4
2018-Jul-16 09:57N 09°17' W 079°55'1 1.3
2018-Jul-16 09:28N 09°17' W 079°55'0 1.0
2018-Jul-16 09:00N 09°18' W 079°55'3 5.2
2018-Jul-16 08:30N 09°20' W 079°55'3 6.0
2018-Jul-16 08:01N 09°23' W 079°55'4 6.8
2018-Jul-16 07:29N 09°27' W 079°55'1 0.4
2018-Jul-16 06:07N 09°27' W 079°56'0 0.0
2018-Jul-16 05:52N 09°27' W 079°56'0 0.0
2018-Jul-16 04:04N 09°27' W 079°56'0 0.0
2018-Jul-16 03:52N 09°27' W 079°56'0 0.0
2018-Jul-16 03:28N 09°27' W 079°56'0 0.1
2018-Jul-16 02:40N 09°27' W 079°56'0 0.0
2018-Jul-16 02:22N 09°27' W 079°56'0 0.1
2018-Jul-16 01:52N 09°27' W 079°56'0 0.0
2018-Jul-16 01:28N 09°27' W 079°56'0 0.0
2018-Jul-16 00:58N 09°27' W 079°56'0 0.0
2018-Jul-16 00:28N 09°27' W 079°56'0 0.0
2018-Jul-15 23:40N 09°27' W 079°56'0 0.0
2018-Jul-15 23:28N 09°27' W 079°56'0 0.0
2018-Jul-15 22:58N 09°27' W 079°56'0 0.0
2018-Jul-15 22:25N 09°27' W 079°56'0 0.3
2018-Jul-15 21:57N 09°27' W 079°56'1 3.0
2018-Jul-15 21:30N 09°28' W 079°55'  
2018-Jul-10 07:54N 28°51' W 093°13'512.1
2018-Jul-10 07:28N 28°56' W 093°13'612.1
2018-Jul-10 06:57N 29°03' W 093°13'511.9
2018-Jul-10 06:30N 29°08' W 093°13'18 9.8
2018-Jul-10 04:39N 29°26' W 093°13'410.4
2018-Jul-10 04:18N 29°30' W 093°13'3 9.8
2018-Jul-10 04:00N 29°33' W 093°15'510.4
2018-Jul-10 03:28N 29°37' W 093°19'4 9.0
2018-Jul-10 03:00N 29°41' W 093°20'4 8.4
2018-Jul-10 02:30N 29°45' W 093°21'4 8.5
2018-Jul-10 02:01N 29°49' W 093°21'4 8.2
2018-Jul-10 01:31N 29°53' W 093°21'4 7.6
2018-Jul-10 01:01N 29°57' W 093°20'3 6.4
2018-Jul-10 00:31N 30°00' W 093°20'3 6.1
2018-Jul-10 00:01N 30°03' W 093°20'3 5.8
2018-Jul-09 23:30N 30°06' W 093°20'3 5.2
2018-Jul-09 23:01N 30°09' W 093°20'2 3.7
2018-Jul-09 22:31N 30°11' W 093°19'0 0.4
2018-Jul-09 22:00N 30°11' W 093°19'0 0.3
2018-Jul-09 21:29N 30°11' W 093°19'0 0.0
2018-Jul-09 20:56N 30°11' W 093°19'0 0.0
2018-Jul-09 20:29N 30°11' W 093°19'0 0.0
2018-Jul-09 19:59N 30°11' W 093°19'0 0.0
2018-Jul-09 19:29N 30°11' W 093°19'0 0.0
2018-Jul-09 18:59N 30°11' W 093°19'0 0.0
2018-Jul-09 18:29N 30°11' W 093°19'0 0.0
2018-Jul-09 17:59N 30°11' W 093°19'0 0.0
2018-Jul-09 17:29N 30°11' W 093°19'0 0.0
2018-Jul-09 16:59N 30°11' W 093°19'0 0.0
2018-Jul-09 16:29N 30°11' W 093°19'0 0.0
2018-Jul-09 15:59N 30°11' W 093°19'0 0.0
2018-Jul-09 15:29N 30°11' W 093°19'0 0.0
2018-Jul-09 14:59N 30°11' W 093°19'0 0.0
2018-Jul-09 14:29N 30°11' W 093°19'0 0.0
2018-Jul-09 13:59N 30°11' W 093°19'0 0.0
2018-Jul-09 13:29N 30°11' W 093°19'0 0.0
2018-Jul-09 12:59N 30°11' W 093°19'0 0.0
2018-Jul-09 12:29N 30°11' W 093°19'0 0.0
2018-Jul-09 11:59N 30°11' W 093°19'0 0.0
2018-Jul-09 11:29N 30°11' W 093°19'0 0.0
2018-Jul-09 10:59N 30°11' W 093°19'0 0.0
2018-Jul-09 10:29N 30°11' W 093°19'0 0.0
2018-Jul-09 09:59N 30°11' W 093°19'0 0.0
2018-Jul-09 09:29N 30°11' W 093°19'0 0.0
2018-Jul-09 08:59N 30°11' W 093°19'0 0.0
2018-Jul-09 08:29N 30°11' W 093°19'0 0.0
2018-Jul-09 07:59N 30°11' W 093°19'0 0.0
2018-Jul-09 07:29N 30°11' W 093°19'0 0.0
2018-Jul-09 06:59N 30°11' W 093°19'0 0.0
2018-Jul-09 06:26N 30°11' W 093°19'0 0.0
2018-Jul-09 05:59N 30°11' W 093°19'0 0.0
2018-Jul-09 05:29N 30°11' W 093°19'0 0.0
2018-Jul-09 04:59N 30°11' W 093°19'0 0.0
2018-Jul-09 04:29N 30°11' W 093°19'0 0.0
2018-Jul-09 03:59N 30°11' W 093°19'0 0.0
2018-Jul-09 03:29N 30°11' W 093°19'0 0.0
2018-Jul-09 02:59N 30°11' W 093°19'0 0.0
2018-Jul-09 02:29N 30°11' W 093°19'0 0.0
2018-Jul-09 01:59N 30°11' W 093°19'0 0.0
2018-Jul-09 01:29N 30°11' W 093°19'0 0.0
2018-Jul-09 00:59N 30°11' W 093°19'0 0.0
2018-Jul-09 00:29N 30°11' W 093°19'0 0.0
2018-Jul-08 23:56N 30°11' W 093°19'0 0.0
2018-Jul-08 23:29N 30°11' W 093°19'0 0.0
2018-Jul-08 22:59N 30°11' W 093°19'0 0.0
2018-Jul-08 22:29N 30°11' W 093°19'0 0.0
2018-Jul-08 21:53N 30°11' W 093°19'0 0.0
2018-Jul-08 21:29N 30°11' W 093°19'0 0.0
2018-Jul-08 20:59N 30°11' W 093°19'0 0.0
2018-Jul-08 20:29N 30°11' W 093°19'0 0.0
2018-Jul-08 19:59N 30°11' W 093°19'0 0.0
2018-Jul-08 19:29N 30°11' W 093°19'0 0.0
2018-Jul-08 18:59N 30°11' W 093°19'0 0.0
2018-Jul-08 18:29N 30°11' W 093°19'0 0.0
2018-Jul-08 17:59N 30°11' W 093°19'0 0.0
2018-Jul-08 17:23N 30°11' W 093°19'0 0.0
2018-Jul-08 16:59N 30°11' W 093°19'0 0.0
2018-Jul-08 16:29N 30°11' W 093°19'0 0.0
2018-Jul-08 15:59N 30°11' W 093°19'0 0.0
2018-Jul-08 15:29N 30°11' W 093°19'0 0.0
2018-Jul-08 14:59N 30°11' W 093°19'0 0.0
2018-Jul-08 14:29N 30°11' W 093°19'0 0.0
2018-Jul-08 13:59N 30°11' W 093°19'0 0.0
2018-Jul-08 13:29N 30°11' W 093°19'0 0.0
2018-Jul-08 12:59N 30°11' W 093°19'0 0.0
2018-Jul-08 12:29N 30°11' W 093°19'0 0.0
2018-Jul-08 11:56N 30°11' W 093°19'0 0.0
2018-Jul-08 11:29N 30°11' W 093°19'0 0.0
2018-Jul-08 10:59N 30°11' W 093°19'0 0.0
2018-Jul-08 10:29N 30°11' W 093°19'0 0.0
2018-Jul-08 09:59N 30°11' W 093°19'0 0.0
2018-Jul-08 09:29N 30°11' W 093°19'0 0.0
2018-Jul-08 08:59N 30°11' W 093°19'0 0.0
2018-Jul-08 08:29N 30°11' W 093°19'0 0.0
2018-Jul-08 07:59N 30°11' W 093°19'0 0.0
2018-Jul-08 07:29N 30°11' W 093°19'0 0.0
2018-Jul-08 06:59N 30°11' W 093°19'0 0.0
2018-Jul-08 06:29N 30°11' W 093°19'0 0.0
2018-Jul-08 05:59N 30°11' W 093°19'0 0.0
2018-Jul-08 05:29N 30°11' W 093°19'0 0.0
2018-Jul-08 04:59N 30°11' W 093°19'0 0.0
2018-Jul-08 04:29N 30°11' W 093°19'0 0.0
2018-Jul-08 03:59N 30°11' W 093°19'0 0.0
2018-Jul-08 03:29N 30°11' W 093°19'0 0.0
2018-Jul-08 02:59N 30°11' W 093°19'0 0.0
2018-Jul-08 02:29N 30°11' W 093°19'0 0.0
2018-Jul-08 01:59N 30°11' W 093°19'0 0.0
2018-Jul-08 01:29N 30°11' W 093°19'0 0.0
2018-Jul-08 00:59N 30°11' W 093°19'0 0.0
2018-Jul-08 00:29N 30°11' W 093°19'0 0.0
2018-Jul-07 23:59N 30°11' W 093°19'0 0.0
2018-Jul-07 23:29N 30°11' W 093°19'0 0.0
2018-Jul-07 22:59N 30°11' W 093°19'0 0.0
2018-Jul-07 22:29N 30°11' W 093°19'0 0.0
2018-Jul-07 21:59N 30°11' W 093°19'0 0.0
2018-Jul-07 21:29N 30°11' W 093°19'0 0.0
2018-Jul-07 20:59N 30°11' W 093°19'0 0.0
2018-Jul-07 20:29N 30°11' W 093°19'0 0.0
2018-Jul-07 19:59N 30°11' W 093°19'0 0.0
2018-Jul-07 19:29N 30°11' W 093°19'0 0.0
2018-Jul-07 18:56N 30°11' W 093°19'0 0.0
2018-Jul-07 18:29N 30°11' W 093°19'0 0.0
2018-Jul-07 17:59N 30°11' W 093°19'0 0.0
2018-Jul-07 17:29N 30°11' W 093°19'0 0.0
2018-Jul-07 16:59N 30°11' W 093°19'0 0.0
2018-Jul-07 16:29N 30°11' W 093°19'0 0.0
2018-Jul-07 15:59N 30°11' W 093°19'0 0.0
2018-Jul-07 15:29N 30°11' W 093°19'0 0.0
2018-Jul-07 14:59N 30°11' W 093°19'0 0.0
2018-Jul-07 14:29N 30°11' W 093°19'0 0.0
2018-Jul-07 13:59N 30°11' W 093°19'0 0.0
2018-Jul-07 13:29N 30°11' W 093°19'0 0.0
2018-Jul-07 12:59N 30°11' W 093°19'0 0.0
2018-Jul-07 12:29N 30°11' W 093°19'0 0.0
2018-Jul-07 11:59N 30°11' W 093°19'0 0.0
2018-Jul-07 11:29N 30°11' W 093°19'0 0.0
2018-Jul-07 10:59N 30°11' W 093°19'0 0.0
2018-Jul-07 10:29N 30°11' W 093°19'0 0.0
2018-Jul-07 09:59N 30°11' W 093°19'0 0.0
2018-Jul-07 09:29N 30°11' W 093°19'0 0.0
2018-Jul-07 08:59N 30°11' W 093°19'0 0.0
2018-Jul-07 08:29N 30°11' W 093°19'0 0.0
2018-Jul-07 07:59N 30°11' W 093°19'0 0.0
2018-Jul-07 07:29N 30°11' W 093°19'0 0.0
2018-Jul-07 06:59N 30°11' W 093°19'0 0.0
2018-Jul-07 06:27N 30°11' W 093°19'0 0.9
2018-Jul-07 06:00N 30°10' W 093°19'3 5.4
2018-Jul-07 05:30N 30°08' W 093°20'4 7.0
2018-Jul-07 05:00N 30°04' W 093°20'4 8.1
2018-Jul-07 04:30N 30°00' W 093°20'4 8.1
2018-Jul-07 04:00N 29°56' W 093°20'5 9.2
2018-Jul-07 03:30N 29°51' W 093°21'5 9.4
2018-Jul-07 03:00N 29°47' W 093°21'8 9.2
2018-Jul-07 02:09N 29°39' W 093°19'1 8.6
2018-Jul-07 02:00N 29°38' W 093°19'  

Dump ship's entire track history